sensor_id;sensor_type;location;lat;lon;timestamp;pressure;altitude;pressure_sealevel;temperature;humidity
40788;BME280;26497;52.494;7.546;2023-02-14T00:01:17;102909.06;;;7.72;67.00
40788;BME280;26497;52.494;7.546;2023-02-14T00:03:45;102910.75;;;7.72;66.70
40788;BME280;26497;52.494;7.546;2023-02-14T00:06:16;102906.41;;;7.72;67.09
40788;BME280;26497;52.494;7.546;2023-02-14T00:08:43;102905.59;;;7.73;67.16
40788;BME280;26497;52.494;7.546;2023-02-14T00:11:10;102908.50;;;7.79;67.30
40788;BME280;26497;52.494;7.546;2023-02-14T00:13:38;102901.91;;;7.88;67.46
40788;BME280;26497;52.494;7.546;2023-02-14T00:16:25;102906.38;;;7.90;67.05
40788;BME280;26497;52.494;7.546;2023-02-14T00:18:51;102905.19;;;7.84;66.80
40788;BME280;26497;52.494;7.546;2023-02-14T00:21:37;102906.41;;;7.72;66.87
40788;BME280;26497;52.494;7.546;2023-02-14T00:24:08;102898.00;;;7.61;66.72
40788;BME280;26497;52.494;7.546;2023-02-14T00:26:35;102903.94;;;7.57;66.94
40788;BME280;26497;52.494;7.546;2023-02-14T00:29:03;102906.44;;;7.54;66.85
40788;BME280;26497;52.494;7.546;2023-02-14T00:31:31;102909.88;;;7.53;67.18
40788;BME280;26497;52.494;7.546;2023-02-14T00:33:58;102905.41;;;7.50;67.11
40788;BME280;26497;52.494;7.546;2023-02-14T00:36:25;102902.97;;;7.73;66.61
40788;BME280;26497;52.494;7.546;2023-02-14T00:38:54;102908.75;;;7.66;66.34
40788;BME280;26497;52.494;7.546;2023-02-14T00:41:21;102907.19;;;7.51;66.50
40788;BME280;26497;52.494;7.546;2023-02-14T00:43:50;102894.28;;;7.38;66.63
40788;BME280;26497;52.494;7.546;2023-02-14T00:46:19;102897.38;;;7.47;66.42
40788;BME280;26497;52.494;7.546;2023-02-14T00:48:47;102902.81;;;7.52;66.10
40788;BME280;26497;52.494;7.546;2023-02-14T00:51:14;102901.69;;;7.47;65.81
40788;BME280;26497;52.494;7.546;2023-02-14T00:53:44;102897.56;;;7.52;65.70
40788;BME280;26497;52.494;7.546;2023-02-14T00:56:12;102900.19;;;7.52;65.70
40788;BME280;26497;52.494;7.546;2023-02-14T00:58:40;102905.00;;;7.43;65.80
40788;BME280;26497;52.494;7.546;2023-02-14T01:01:08;102897.13;;;7.43;65.68
40788;BME280;26497;52.494;7.546;2023-02-14T01:03:35;102911.91;;;7.59;64.84
40788;BME280;26497;52.494;7.546;2023-02-14T01:06:04;102900.25;;;7.72;64.83
40788;BME280;26497;52.494;7.546;2023-02-14T01:08:31;102900.88;;;7.66;65.07
40788;BME280;26497;52.494;7.546;2023-02-14T01:11:07;102911.16;;;7.43;65.60
40788;BME280;26497;52.494;7.546;2023-02-14T01:13:36;102915.31;;;7.20;66.01
40788;BME280;26497;52.494;7.546;2023-02-14T01:16:07;102920.97;;;7.11;66.24
40788;BME280;26497;52.494;7.546;2023-02-14T01:18:35;102918.13;;;7.06;66.67
40788;BME280;26497;52.494;7.546;2023-02-14T01:21:15;102919.94;;;7.07;66.84
40788;BME280;26497;52.494;7.546;2023-02-14T01:23:44;102914.69;;;7.07;67.02
40788;BME280;26497;52.494;7.546;2023-02-14T01:26:12;102918.13;;;7.06;67.64
40788;BME280;26497;52.494;7.546;2023-02-14T01:28:43;102916.34;;;7.05;67.65
40788;BME280;26497;52.494;7.546;2023-02-14T01:31:13;102926.81;;;7.05;67.62
40788;BME280;26497;52.494;7.546;2023-02-14T01:33:43;102918.50;;;7.14;67.76
40788;BME280;26497;52.494;7.546;2023-02-14T01:36:18;102913.66;;;7.22;67.62
40788;BME280;26497;52.494;7.546;2023-02-14T01:38:46;102915.72;;;7.29;67.97
40788;BME280;26497;52.494;7.546;2023-02-14T01:41:13;102920.16;;;7.30;67.86
40788;BME280;26497;52.494;7.546;2023-02-14T01:43:57;102910.47;;;7.29;67.75
40788;BME280;26497;52.494;7.546;2023-02-14T01:46:27;102908.72;;;7.28;67.49
40788;BME280;26497;52.494;7.546;2023-02-14T01:49:03;102910.34;;;7.26;67.41
40788;BME280;26497;52.494;7.546;2023-02-14T01:51:32;102910.22;;;7.23;67.38
40788;BME280;26497;52.494;7.546;2023-02-14T01:54:01;102910.78;;;7.17;67.48
40788;BME280;26497;52.494;7.546;2023-02-14T01:56:35;102909.50;;;7.09;67.54
40788;BME280;26497;52.494;7.546;2023-02-14T01:59:09;102904.41;;;7.12;67.67
40788;BME280;26497;52.494;7.546;2023-02-14T02:01:38;102900.28;;;7.17;67.56
40788;BME280;26497;52.494;7.546;2023-02-14T02:04:08;102906.09;;;7.28;68.08
40788;BME280;26497;52.494;7.546;2023-02-14T02:06:38;102904.03;;;7.41;68.11
40788;BME280;26497;52.494;7.546;2023-02-14T02:09:12;102895.56;;;7.46;67.75
40788;BME280;26497;52.494;7.546;2023-02-14T02:11:42;102899.75;;;7.43;67.67
40788;BME280;26497;52.494;7.546;2023-02-14T02:14:14;102898.63;;;7.37;67.71
40788;BME280;26497;52.494;7.546;2023-02-14T02:17:26;102891.53;;;7.35;67.89
40788;BME280;26497;52.494;7.546;2023-02-14T02:20:35;102892.34;;;7.34;67.64
40788;BME280;26497;52.494;7.546;2023-02-14T02:24:00;102888.94;;;7.36;67.52
40788;BME280;26497;52.494;7.546;2023-02-14T02:26:59;102892.66;;;7.22;67.37
40788;BME280;26497;52.494;7.546;2023-02-14T02:33:20;102896.31;;;7.07;67.30
40788;BME280;26497;52.494;7.546;2023-02-14T02:39:08;102893.38;;;7.01;67.66
40788;BME280;26497;52.494;7.546;2023-02-14T02:41:50;102891.34;;;6.96;67.26
40788;BME280;26497;52.494;7.546;2023-02-14T02:44:28;102887.06;;;6.98;67.35
40788;BME280;26497;52.494;7.546;2023-02-14T02:47:06;102880.41;;;7.04;67.58
40788;BME280;26497;52.494;7.546;2023-02-14T02:49:44;102880.56;;;7.07;67.36
40788;BME280;26497;52.494;7.546;2023-02-14T02:52:40;102873.22;;;7.00;67.49
40788;BME280;26497;52.494;7.546;2023-02-14T02:55:36;102869.47;;;6.95;67.42
40788;BME280;26497;52.494;7.546;2023-02-14T02:58:21;102870.88;;;6.88;67.31
40788;BME280;26497;52.494;7.546;2023-02-14T03:00:52;102872.19;;;6.80;67.18
40788;BME280;26497;52.494;7.546;2023-02-14T03:03:22;102863.03;;;6.72;67.20
40788;BME280;26497;52.494;7.546;2023-02-14T03:06:07;102861.47;;;6.57;67.01
40788;BME280;26497;52.494;7.546;2023-02-14T03:08:35;102861.81;;;6.47;67.28
40788;BME280;26497;52.494;7.546;2023-02-14T03:11:04;102863.53;;;6.46;67.52
40788;BME280;26497;52.494;7.546;2023-02-14T03:13:58;102853.50;;;6.56;67.72
40788;BME280;26497;52.494;7.546;2023-02-14T03:16:33;102859.56;;;6.55;67.59
40788;BME280;26497;52.494;7.546;2023-02-14T03:19:45;102848.94;;;6.52;67.72
40788;BME280;26497;52.494;7.546;2023-02-14T03:22:42;102851.22;;;6.45;67.70
40788;BME280;26497;52.494;7.546;2023-02-14T03:25:30;102856.47;;;6.45;67.73
40788;BME280;26497;52.494;7.546;2023-02-14T03:28:10;102844.75;;;6.55;67.50
40788;BME280;26497;52.494;7.546;2023-02-14T03:30:47;102845.47;;;6.53;67.57
40788;BME280;26497;52.494;7.546;2023-02-14T03:33:25;102843.94;;;6.56;67.53
40788;BME280;26497;52.494;7.546;2023-02-14T03:36:00;102850.72;;;6.53;67.38
40788;BME280;26497;52.494;7.546;2023-02-14T03:38:33;102844.84;;;6.40;67.18
40788;BME280;26497;52.494;7.546;2023-02-14T03:41:11;102839.28;;;6.34;67.40
40788;BME280;26497;52.494;7.546;2023-02-14T03:43:44;102846.94;;;6.29;67.63
40788;BME280;26497;52.494;7.546;2023-02-14T03:46:16;102833.81;;;6.29;67.70
40788;BME280;26497;52.494;7.546;2023-02-14T03:48:45;102833.16;;;6.33;67.63
40788;BME280;26497;52.494;7.546;2023-02-14T03:51:14;102841.19;;;6.37;67.47
40788;BME280;26497;52.494;7.546;2023-02-14T03:53:47;102839.28;;;6.34;67.46
40788;BME280;26497;52.494;7.546;2023-02-14T03:56:24;102834.13;;;6.36;67.13
40788;BME280;26497;52.494;7.546;2023-02-14T03:58:55;102834.81;;;6.31;67.05
40788;BME280;26497;52.494;7.546;2023-02-14T04:01:29;102835.53;;;6.29;66.95
40788;BME280;26497;52.494;7.546;2023-02-14T04:03:58;102835.03;;;6.19;66.76
40788;BME280;26497;52.494;7.546;2023-02-14T04:06:26;102835.03;;;6.03;66.85
40788;BME280;26497;52.494;7.546;2023-02-14T04:08:53;102828.63;;;5.98;66.60
40788;BME280;26497;52.494;7.546;2023-02-14T04:11:22;102830.19;;;5.94;66.83
40788;BME280;26497;52.494;7.546;2023-02-14T04:13:49;102832.00;;;5.95;66.96
40788;BME280;26497;52.494;7.546;2023-02-14T04:16:16;102833.88;;;5.98;67.00
40788;BME280;26497;52.494;7.546;2023-02-14T04:18:43;102838.22;;;5.97;66.85
40788;BME280;26497;52.494;7.546;2023-02-14T04:21:27;102845.59;;;5.88;66.67
40788;BME280;26497;52.494;7.546;2023-02-14T04:23:54;102846.16;;;5.82;66.78
40788;BME280;26497;52.494;7.546;2023-02-14T04:26:23;102841.00;;;5.84;66.38
40788;BME280;26497;52.494;7.546;2023-02-14T04:28:50;102841.09;;;5.85;66.71
40788;BME280;26497;52.494;7.546;2023-02-14T04:31:17;102844.38;;;5.81;66.52
40788;BME280;26497;52.494;7.546;2023-02-14T04:33:44;102846.06;;;5.81;66.72
40788;BME280;26497;52.494;7.546;2023-02-14T04:36:12;102837.50;;;5.83;66.73
40788;BME280;26497;52.494;7.546;2023-02-14T04:38:40;102841.16;;;5.70;66.85
40788;BME280;26497;52.494;7.546;2023-02-14T04:41:07;102838.13;;;5.63;66.88
40788;BME280;26497;52.494;7.546;2023-02-14T04:43:35;102842.09;;;5.56;67.03
40788;BME280;26497;52.494;7.546;2023-02-14T04:46:02;102840.41;;;5.56;66.75
40788;BME280;26497;52.494;7.546;2023-02-14T04:48:29;102844.34;;;5.65;67.09
40788;BME280;26497;52.494;7.546;2023-02-14T04:50:57;102836.38;;;5.63;66.94
40788;BME280;26497;52.494;7.546;2023-02-14T04:53:24;102834.69;;;5.64;66.92
40788;BME280;26497;52.494;7.546;2023-02-14T04:55:51;102835.34;;;5.59;66.55
40788;BME280;26497;52.494;7.546;2023-02-14T04:58:18;102830.81;;;5.57;66.83
40788;BME280;26497;52.494;7.546;2023-02-14T05:00:46;102824.28;;;5.65;66.71
40788;BME280;26497;52.494;7.546;2023-02-14T05:03:13;102825.19;;;5.66;66.52
40788;BME280;26497;52.494;7.546;2023-02-14T05:05:40;102821.19;;;5.72;66.63
40788;BME280;26497;52.494;7.546;2023-02-14T05:08:07;102828.81;;;5.68;66.53
40788;BME280;26497;52.494;7.546;2023-02-14T05:10:35;102821.44;;;5.60;66.48
40788;BME280;26497;52.494;7.546;2023-02-14T05:13:02;102819.28;;;5.53;66.54
40788;BME280;26497;52.494;7.546;2023-02-14T05:15:29;102814.44;;;5.44;66.09
40788;BME280;26497;52.494;7.546;2023-02-14T05:17:57;102813.03;;;5.35;66.37
40788;BME280;26497;52.494;7.546;2023-02-14T05:20:27;102808.09;;;5.24;66.23
40788;BME280;26497;52.494;7.546;2023-02-14T05:22:54;102810.31;;;5.16;66.42
40788;BME280;26497;52.494;7.546;2023-02-14T05:25:24;102810.31;;;5.16;66.16
40788;BME280;26497;52.494;7.546;2023-02-14T05:27:51;102812.00;;;5.16;66.05
40788;BME280;26497;52.494;7.546;2023-02-14T05:30:19;102811.75;;;5.11;65.98
40788;BME280;26497;52.494;7.546;2023-02-14T05:32:50;102814.28;;;5.10;66.35
40788;BME280;26497;52.494;7.546;2023-02-14T05:35:18;102816.63;;;5.05;66.14
40788;BME280;26497;52.494;7.546;2023-02-14T05:37:45;102816.81;;;5.08;66.30
40788;BME280;26497;52.494;7.546;2023-02-14T05:40:12;102815.81;;;5.06;66.10
40788;BME280;26497;52.494;7.546;2023-02-14T05:42:41;102819.97;;;5.02;66.03
40788;BME280;26497;52.494;7.546;2023-02-14T05:45:09;102818.16;;;5.01;66.38
40788;BME280;26497;52.494;7.546;2023-02-14T05:47:37;102820.78;;;5.01;66.23
40788;BME280;26497;52.494;7.546;2023-02-14T05:50:06;102813.69;;;4.99;66.22
40788;BME280;26497;52.494;7.546;2023-02-14T05:52:35;102822.88;;;4.92;66.27
40788;BME280;26497;52.494;7.546;2023-02-14T05:55:03;102821.00;;;4.90;66.13
40788;BME280;26497;52.494;7.546;2023-02-14T05:57:30;102818.63;;;4.94;66.12
40788;BME280;26497;52.494;7.546;2023-02-14T05:59:57;102821.59;;;5.00;66.35
40788;BME280;26497;52.494;7.546;2023-02-14T06:02:25;102821.88;;;5.05;66.19
40788;BME280;26497;52.494;7.546;2023-02-14T06:04:52;102818.50;;;5.08;66.27
40788;BME280;26497;52.494;7.546;2023-02-14T06:07:19;102822.03;;;5.08;66.55
40788;BME280;26497;52.494;7.546;2023-02-14T06:09:47;102822.28;;;5.13;66.16
40788;BME280;26497;52.494;7.546;2023-02-14T06:12:15;102825.53;;;5.09;66.43
40788;BME280;26497;52.494;7.546;2023-02-14T06:14:42;102826.19;;;5.05;66.45
40788;BME280;26497;52.494;7.546;2023-02-14T06:17:10;102826.28;;;5.06;66.50
40788;BME280;26497;52.494;7.546;2023-02-14T06:19:37;102827.53;;;5.13;66.22
40788;BME280;26497;52.494;7.546;2023-02-14T06:22:04;102828.44;;;5.13;66.07
40788;BME280;26497;52.494;7.546;2023-02-14T06:24:31;102824.91;;;5.13;66.27
40788;BME280;26497;52.494;7.546;2023-02-14T06:27:00;102819.84;;;5.16;65.99
40788;BME280;26497;52.494;7.546;2023-02-14T06:29:27;102832.84;;;5.14;66.06
40788;BME280;26497;52.494;7.546;2023-02-14T06:31:54;102825.44;;;5.22;66.26
40788;BME280;26497;52.494;7.546;2023-02-14T06:34:21;102826.41;;;5.24;66.00
40788;BME280;26497;52.494;7.546;2023-02-14T06:36:48;102826.25;;;5.21;65.98
40788;BME280;26497;52.494;7.546;2023-02-14T06:39:15;102827.06;;;5.20;65.99
40788;BME280;26497;52.494;7.546;2023-02-14T06:41:42;102820.66;;;5.15;66.17
40788;BME280;26497;52.494;7.546;2023-02-14T06:44:11;102822.28;;;5.13;66.25
40788;BME280;26497;52.494;7.546;2023-02-14T06:46:38;102822.47;;;5.16;66.37
40788;BME280;26497;52.494;7.546;2023-02-14T06:49:05;102820.38;;;5.25;67.39
40788;BME280;26497;52.494;7.546;2023-02-14T06:51:32;102827.09;;;5.37;67.58
40788;BME280;26497;52.494;7.546;2023-02-14T06:53:59;102828.44;;;5.45;67.78
40788;BME280;26497;52.494;7.546;2023-02-14T06:56:27;102835.00;;;5.53;67.65
40788;BME280;26497;52.494;7.546;2023-02-14T06:58:54;102844.19;;;5.61;67.76
40788;BME280;26497;52.494;7.546;2023-02-14T07:01:22;102837.81;;;5.73;67.22
40788;BME280;26497;52.494;7.546;2023-02-14T07:03:49;102837.06;;;5.75;67.16
40788;BME280;26497;52.494;7.546;2023-02-14T07:06:19;102835.44;;;5.78;67.29
40788;BME280;26497;52.494;7.546;2023-02-14T07:08:47;102828.22;;;5.90;67.20
40788;BME280;26497;52.494;7.546;2023-02-14T07:11:14;102830.78;;;5.88;67.14
40788;BME280;26497;52.494;7.546;2023-02-14T07:13:41;102830.13;;;5.93;67.08
40788;BME280;26497;52.494;7.546;2023-02-14T07:16:09;102829.53;;;5.98;67.11
40788;BME280;26497;52.494;7.546;2023-02-14T07:18:37;102822.69;;;6.00;67.20
40788;BME280;26497;52.494;7.546;2023-02-14T07:21:05;102824.66;;;6.04;67.41
40788;BME280;26497;52.494;7.546;2023-02-14T07:23:32;102819.75;;;6.11;67.16
40788;BME280;26497;52.494;7.546;2023-02-14T07:25:59;102829.63;;;6.16;67.25
40788;BME280;26497;52.494;7.546;2023-02-14T07:28:26;102826.19;;;6.17;67.26
40788;BME280;26497;52.494;7.546;2023-02-14T07:30:58;102828.66;;;6.14;67.30
40788;BME280;26497;52.494;7.546;2023-02-14T07:33:25;102828.75;;;6.16;67.62
40788;BME280;26497;52.494;7.546;2023-02-14T07:35:55;102827.28;;;6.21;67.33
40788;BME280;26497;52.494;7.546;2023-02-14T07:38:22;102837.81;;;6.23;67.80
40788;BME280;26497;52.494;7.546;2023-02-14T07:40:52;102833.72;;;6.28;67.94
40788;BME280;26497;52.494;7.546;2023-02-14T07:43:19;102841.03;;;6.33;67.85
40788;BME280;26497;52.494;7.546;2023-02-14T07:45:46;102834.13;;;6.36;67.77
40788;BME280;26497;52.494;7.546;2023-02-14T07:48:13;102828.88;;;6.52;67.86
40788;BME280;26497;52.494;7.546;2023-02-14T07:50:41;102833.28;;;6.53;67.59
40788;BME280;26497;52.494;7.546;2023-02-14T07:53:09;102834.28;;;6.55;67.84
40788;BME280;26497;52.494;7.546;2023-02-14T07:55:36;102830.22;;;6.62;67.82
40788;BME280;26497;52.494;7.546;2023-02-14T07:58:05;102826.47;;;6.75;67.89
40788;BME280;26497;52.494;7.546;2023-02-14T08:00:32;102823.84;;;6.75;68.08
40788;BME280;26497;52.494;7.546;2023-02-14T08:02:59;102821.78;;;6.86;67.98
40788;BME280;26497;52.494;7.546;2023-02-14T08:05:26;102823.06;;;6.94;67.97
40788;BME280;26497;52.494;7.546;2023-02-14T08:07:53;102829.97;;;7.10;67.81
40788;BME280;26497;52.494;7.546;2023-02-14T08:10:22;102817.28;;;7.19;67.65
40788;BME280;26497;52.494;7.546;2023-02-14T08:12:49;102823.66;;;7.25;67.90
40788;BME280;26497;52.494;7.546;2023-02-14T08:15:24;102822.16;;;7.30;68.19
40788;BME280;26497;52.494;7.546;2023-02-14T08:18:09;102828.72;;;7.40;68.48
40788;BME280;26497;52.494;7.546;2023-02-14T08:20:37;102825.41;;;7.44;68.48
40788;BME280;26497;52.494;7.546;2023-02-14T08:23:04;102829.38;;;7.53;68.53
40788;BME280;26497;52.494;7.546;2023-02-14T08:25:32;102832.94;;;7.74;68.37
40788;BME280;26497;52.494;7.546;2023-02-14T08:28:01;102827.97;;;7.80;67.92
40788;BME280;26497;52.494;7.546;2023-02-14T08:30:29;102828.03;;;7.81;68.69
40788;BME280;26497;52.494;7.546;2023-02-14T08:32:56;102823.94;;;7.88;68.75
40788;BME280;26497;52.494;7.546;2023-02-14T08:35:23;102829.44;;;7.93;69.07
40788;BME280;26497;52.494;7.546;2023-02-14T08:37:50;102837.78;;;8.04;68.95
40788;BME280;26497;52.494;7.546;2023-02-14T08:40:18;102832.31;;;8.19;68.18
40788;BME280;26497;52.494;7.546;2023-02-14T08:42:47;102831.34;;;8.17;68.78
40788;BME280;26497;52.494;7.546;2023-02-14T08:45:14;102829.13;;;8.26;69.07
40788;BME280;26497;52.494;7.546;2023-02-14T08:47:41;102837.09;;;8.27;69.24
40788;BME280;26497;52.494;7.546;2023-02-14T08:50:11;102829.59;;;8.37;69.41
40788;BME280;26497;52.494;7.546;2023-02-14T08:52:40;102828.56;;;8.53;69.49
40788;BME280;26497;52.494;7.546;2023-02-14T08:55:09;102828.13;;;8.63;69.02
40788;BME280;26497;52.494;7.546;2023-02-14T08:57:36;102828.41;;;8.71;69.16
40788;BME280;26497;52.494;7.546;2023-02-14T09:00:06;102825.34;;;8.81;69.30
40788;BME280;26497;52.494;7.546;2023-02-14T09:02:34;102826.56;;;8.90;69.05
40788;BME280;26497;52.494;7.546;2023-02-14T09:05:02;102824.63;;;8.85;69.21
40788;BME280;26497;52.494;7.546;2023-02-14T09:07:29;102822.50;;;8.98;69.33
40788;BME280;26497;52.494;7.546;2023-02-14T09:09:56;102817.03;;;9.14;69.31
40788;BME280;26497;52.494;7.546;2023-02-14T09:12:23;102824.03;;;9.14;69.09
40788;BME280;26497;52.494;7.546;2023-02-14T09:14:50;102821.91;;;9.26;69.84
40788;BME280;26497;52.494;7.546;2023-02-14T09:17:18;102813.56;;;9.38;69.80
40788;BME280;26497;52.494;7.546;2023-02-14T09:19:46;102827.22;;;9.51;69.87
40788;BME280;26497;52.494;7.546;2023-02-14T09:22:13;102815.59;;;9.68;69.53
40788;BME280;26497;52.494;7.546;2023-02-14T09:24:40;102814.19;;;9.78;69.52
40788;BME280;26497;52.494;7.546;2023-02-14T09:27:07;102812.75;;;9.86;70.29
40788;BME280;26497;52.494;7.546;2023-02-14T09:29:35;102806.72;;;10.15;71.77
40788;BME280;26497;52.494;7.546;2023-02-14T09:32:03;102799.41;;;11.11;77.04
40788;BME280;26497;52.494;7.546;2023-02-14T09:34:33;102807.66;;;12.46;82.34
40788;BME280;26497;52.494;7.546;2023-02-14T09:37:18;102793.25;;;13.88;83.34
40788;BME280;26497;52.494;7.546;2023-02-14T09:40:04;102783.75;;;15.03;79.27
40788;BME280;26497;52.494;7.546;2023-02-14T09:42:51;102792.78;;;15.15;72.77
40788;BME280;26497;52.494;7.546;2023-02-14T09:45:24;102793.84;;;14.71;72.08
40788;BME280;26497;52.494;7.546;2023-02-14T09:47:55;102785.09;;;14.24;71.50
40788;BME280;26497;52.494;7.546;2023-02-14T09:50:29;102788.19;;;14.01;75.85
40788;BME280;26497;52.494;7.546;2023-02-14T09:53:03;102782.00;;;14.50;77.83
40788;BME280;26497;52.494;7.546;2023-02-14T09:55:38;102777.97;;;14.72;78.21
40788;BME280;26497;52.494;7.546;2023-02-14T09:58:14;102781.66;;;16.19;84.48
40788;BME280;26497;52.494;7.546;2023-02-14T10:00:47;102776.34;;;17.46;81.41
40788;BME280;26497;52.494;7.546;2023-02-14T10:03:50;102769.47;;;18.65;80.42
40788;BME280;26497;52.494;7.546;2023-02-14T10:06:40;102769.28;;;19.45;76.87
40788;BME280;26497;52.494;7.546;2023-02-14T10:09:21;102777.09;;;19.92;73.49
40788;BME280;26497;52.494;7.546;2023-02-14T10:11:53;102775.16;;;20.19;68.98
40788;BME280;26497;52.494;7.546;2023-02-14T10:14:25;102770.47;;;20.46;72.39
40788;BME280;26497;52.494;7.546;2023-02-14T10:16:58;102772.81;;;20.85;68.96
40788;BME280;26497;52.494;7.546;2023-02-14T10:19:33;102768.09;;;21.07;66.55
40788;BME280;26497;52.494;7.546;2023-02-14T10:22:09;102767.75;;;21.38;66.41
40788;BME280;26497;52.494;7.546;2023-02-14T10:24:43;102760.19;;;21.71;64.74
40788;BME280;26497;52.494;7.546;2023-02-14T10:27:25;102759.84;;;21.94;65.77
40788;BME280;26497;52.494;7.546;2023-02-14T10:29:55;102756.13;;;22.05;60.75
40788;BME280;26497;52.494;7.546;2023-02-14T10:32:29;102753.25;;;22.16;60.59
40788;BME280;26497;52.494;7.546;2023-02-14T10:35:01;102752.28;;;22.20;59.44
40788;BME280;26497;52.494;7.546;2023-02-14T10:37:50;102752.44;;;22.65;52.25
40788;BME280;26497;52.494;7.546;2023-02-14T10:40:48;102749.59;;;22.20;51.15
40788;BME280;26497;52.494;7.546;2023-02-14T10:43:30;102742.53;;;22.67;43.60
40788;BME280;26497;52.494;7.546;2023-02-14T10:46:06;102752.28;;;22.75;42.31
40788;BME280;26497;52.494;7.546;2023-02-14T10:48:48;102741.75;;;22.62;42.98
40788;BME280;26497;52.494;7.546;2023-02-14T10:51:23;102744.03;;;22.32;39.34
40788;BME280;26497;52.494;7.546;2023-02-14T10:54:15;102742.13;;;22.37;37.59
40788;BME280;26497;52.494;7.546;2023-02-14T10:56:49;102738.59;;;22.86;37.25
40788;BME280;26497;52.494;7.546;2023-02-14T10:59:22;102734.94;;;23.35;36.12
40788;BME280;26497;52.494;7.546;2023-02-14T11:01:51;102737.84;;;22.79;33.06
40788;BME280;26497;52.494;7.546;2023-02-14T11:04:22;102737.13;;;22.69;35.28
40788;BME280;26497;52.494;7.546;2023-02-14T11:06:50;102736.59;;;22.97;34.06
40788;BME280;26497;52.494;7.546;2023-02-14T11:09:19;102738.72;;;23.26;33.81
40788;BME280;26497;52.494;7.546;2023-02-14T11:11:50;102735.94;;;23.31;32.96
40788;BME280;26497;52.494;7.546;2023-02-14T11:14:24;102736.00;;;22.29;33.98
40788;BME280;26497;52.494;7.546;2023-02-14T11:16:54;102727.16;;;21.64;34.72
40788;BME280;26497;52.494;7.546;2023-02-14T11:19:25;102730.66;;;20.98;36.05
40788;BME280;26497;52.494;7.546;2023-02-14T11:21:55;102725.59;;;21.46;36.34
40788;BME280;26497;52.494;7.546;2023-02-14T11:24:30;102720.91;;;22.22;34.74
40788;BME280;26497;52.494;7.546;2023-02-14T11:27:00;102716.25;;;21.77;34.39
40788;BME280;26497;52.494;7.546;2023-02-14T11:29:30;102713.22;;;21.34;34.52
40788;BME280;26497;52.494;7.546;2023-02-14T11:32:07;102710.84;;;21.13;35.27
40788;BME280;26497;52.494;7.546;2023-02-14T11:34:37;102710.56;;;20.53;36.35
40788;BME280;26497;52.494;7.546;2023-02-14T11:37:24;102716.56;;;20.80;36.23
40788;BME280;26497;52.494;7.546;2023-02-14T11:39:56;102702.47;;;21.36;35.78
40788;BME280;26497;52.494;7.546;2023-02-14T11:42:41;102697.47;;;21.08;35.70
40788;BME280;26497;52.494;7.546;2023-02-14T11:45:29;102689.66;;;21.57;35.17
40788;BME280;26497;52.494;7.546;2023-02-14T11:48:16;102679.25;;;22.49;33.97
40788;BME280;26497;52.494;7.546;2023-02-14T11:50:54;102677.22;;;23.06;32.94
40788;BME280;26497;52.494;7.546;2023-02-14T11:53:25;102664.13;;;22.42;33.04
40788;BME280;26497;52.494;7.546;2023-02-14T11:55:55;102661.88;;;22.16;32.74
40788;BME280;26497;52.494;7.546;2023-02-14T11:58:34;102671.34;;;21.21;34.68
40788;BME280;26497;52.494;7.546;2023-02-14T12:01:03;102662.47;;;21.19;35.30
40788;BME280;26497;52.494;7.546;2023-02-14T12:03:43;102660.94;;;20.09;35.87
40788;BME280;26497;52.494;7.546;2023-02-14T12:06:12;102662.69;;;20.16;36.60
40788;BME280;26497;52.494;7.546;2023-02-14T12:08:48;102665.16;;;21.19;35.42
40788;BME280;26497;52.494;7.546;2023-02-14T12:11:22;102657.78;;;21.35;34.54
40788;BME280;26497;52.494;7.546;2023-02-14T12:13:53;102654.81;;;21.54;33.93
40788;BME280;26497;52.494;7.546;2023-02-14T12:16:25;102651.47;;;20.64;35.43
40788;BME280;26497;52.494;7.546;2023-02-14T12:18:58;102657.28;;;20.19;36.48
40788;BME280;26497;52.494;7.546;2023-02-14T12:21:43;102641.84;;;21.23;35.32
40788;BME280;26497;52.494;7.546;2023-02-14T12:24:22;102645.75;;;20.98;35.04
40788;BME280;26497;52.494;7.546;2023-02-14T12:27:02;102636.13;;;20.82;35.47
40788;BME280;26497;52.494;7.546;2023-02-14T12:29:34;102634.69;;;21.21;34.60
40788;BME280;26497;52.494;7.546;2023-02-14T12:32:15;102624.28;;;21.64;34.65
40788;BME280;26497;52.494;7.546;2023-02-14T12:34:44;102621.09;;;22.45;32.94
40788;BME280;26497;52.494;7.546;2023-02-14T12:37:30;102625.41;;;22.04;32.78
40788;BME280;26497;52.494;7.546;2023-02-14T12:40:10;102618.69;;;22.28;33.13
40788;BME280;26497;52.494;7.546;2023-02-14T12:43:17;102615.44;;;22.58;32.10
40788;BME280;26497;52.494;7.546;2023-02-14T12:46:09;102612.31;;;22.32;32.35
40788;BME280;26497;52.494;7.546;2023-02-14T12:48:57;102611.94;;;21.49;34.23
40788;BME280;26497;52.494;7.546;2023-02-14T12:51:35;102614.75;;;20.72;35.15
40788;BME280;26497;52.494;7.546;2023-02-14T12:54:35;102613.38;;;21.12;34.82
40788;BME280;26497;52.494;7.546;2023-02-14T12:57:20;102608.09;;;21.06;34.84
40788;BME280;26497;52.494;7.546;2023-02-14T12:59:58;102595.63;;;21.02;35.91
40788;BME280;26497;52.494;7.546;2023-02-14T13:03:00;102592.19;;;20.90;34.57
40788;BME280;26497;52.494;7.546;2023-02-14T13:05:44;102585.72;;;21.68;33.52
40788;BME280;26497;52.494;7.546;2023-02-14T13:08:33;102577.66;;;22.65;32.25
40788;BME280;26497;52.494;7.546;2023-02-14T13:11:12;102583.13;;;23.42;31.10
40788;BME280;26497;52.494;7.546;2023-02-14T13:13:54;102575.63;;;23.55;30.62
40788;BME280;26497;52.494;7.546;2023-02-14T13:16:35;102577.44;;;23.16;30.94
40788;BME280;26497;52.494;7.546;2023-02-14T13:19:15;102576.63;;;22.73;32.33
40788;BME280;26497;52.494;7.546;2023-02-14T13:21:50;102576.13;;;23.35;30.95
40788;BME280;26497;52.494;7.546;2023-02-14T13:24:22;102566.38;;;23.67;30.27
40788;BME280;26497;52.494;7.546;2023-02-14T13:26:54;102557.47;;;24.00;30.27
40788;BME280;26497;52.494;7.546;2023-02-14T13:29:26;102564.47;;;24.07;30.20
40788;BME280;26497;52.494;7.546;2023-02-14T13:32:00;102568.31;;;23.62;30.34
40788;BME280;26497;52.494;7.546;2023-02-14T13:34:31;102565.31;;;23.73;30.30